createdAt,value
2024-02-08T00:00:26.810Z,30.23
2024-02-08T00:02:53.281Z,31.25
2024-02-08T00:05:19.789Z,32.47
2024-02-08T00:07:46.310Z,30.10
2024-02-08T00:10:12.863Z,30.13
2024-02-08T00:12:41.094Z,31.80
2024-02-08T00:15:08.439Z,31.30
2024-02-08T00:17:35.045Z,32.22
2024-02-08T00:20:01.659Z,29.45
2024-02-08T00:22:28.208Z,29.42
2024-02-08T00:24:57.590Z,29.98
2024-02-08T00:27:24.075Z,27.95
2024-02-08T00:29:50.637Z,29.00
2024-02-08T00:32:17.107Z,29.77
2024-02-08T00:34:43.864Z,28.30
2024-02-08T00:37:10.635Z,29.00
2024-02-08T00:39:43.505Z,28.08
2024-02-08T00:42:12.509Z,26.70
2024-02-08T00:44:45.229Z,30.35
2024-02-08T00:47:12.232Z,28.30
2024-02-08T00:49:40.604Z,27.60
2024-02-08T00:52:11.219Z,28.55
2024-02-08T00:54:37.863Z,28.20
2024-02-08T00:57:11.659Z,28.23
2024-02-08T00:59:38.936Z,27.92
2024-02-08T01:02:06.740Z,27.13
2024-02-08T01:04:34.497Z,26.55
2024-02-08T01:07:01.217Z,27.55
2024-02-08T01:09:27.873Z,27.00
2024-02-08T01:11:54.434Z,25.50
2024-02-08T01:14:23.995Z,26.48
2024-02-08T01:16:55.405Z,25.23
2024-02-08T01:19:23.918Z,25.80
2024-02-08T01:21:51.518Z,26.33
2024-02-08T01:24:19.558Z,26.08
2024-02-08T01:26:47.451Z,26.65
2024-02-08T01:29:14.609Z,24.75
2024-02-08T01:31:42.073Z,24.23
2024-02-08T01:34:09.510Z,24.92
2024-02-08T01:36:42.886Z,23.90
2024-02-08T01:39:23.801Z,26.50
2024-02-08T01:41:53.749Z,23.92
2024-02-08T01:44:22.726Z,24.77
2024-02-08T01:46:51.342Z,22.85
2024-02-08T01:49:22.495Z,25.10
2024-02-08T01:51:49.878Z,25.00
2024-02-08T01:54:18.600Z,23.40
2024-02-08T01:56:45.770Z,24.55
2024-02-08T01:59:14.736Z,23.95
2024-02-08T02:01:47.462Z,22.42
2024-02-08T02:04:16.934Z,24.98
2024-02-08T02:06:44.342Z,23.58
2024-02-08T02:09:25.111Z,23.67
2024-02-08T02:12:00.648Z,22.70
2024-02-08T02:14:30.388Z,24.10
2024-02-08T02:17:20.076Z,22.60
2024-02-08T02:19:47.993Z,22.42
2024-02-08T02:22:16.721Z,24.10
2024-02-08T02:24:43.483Z,23.30
2024-02-08T02:27:12.088Z,22.75
2024-02-08T02:29:39.685Z,21.30
2024-02-08T02:32:08.962Z,22.10
2024-02-08T02:37:03.997Z,21.02
2024-02-08T02:39:32.540Z,22.02
2024-02-08T02:42:00.214Z,21.35
2024-02-08T02:44:30.312Z,20.58
2024-02-08T02:47:05.093Z,19.48
2024-02-08T02:49:38.115Z,21.27
2024-02-08T02:52:09.260Z,18.33
2024-02-08T02:54:36.675Z,20.33
2024-02-08T02:57:04.196Z,21.00
2024-02-08T02:59:31.687Z,19.48
2024-02-08T03:01:58.466Z,20.13
2024-02-08T03:04:25.121Z,20.80
2024-02-08T03:06:54.397Z,19.67
2024-02-08T03:09:28.375Z,19.92
2024-02-08T03:11:58.407Z,20.77
2024-02-08T03:14:26.057Z,19.45
2024-02-08T03:16:52.822Z,18.85
2024-02-08T03:19:21.650Z,17.83
2024-02-08T03:21:48.349Z,20.50
2024-02-08T03:24:14.901Z,18.73
2024-02-08T03:26:50.716Z,20.63
2024-02-08T03:29:17.762Z,18.60
2024-02-08T03:31:46.509Z,18.67
2024-02-08T03:34:17.831Z,18.60
2024-02-08T03:36:48.265Z,19.27
2024-02-08T03:39:26.458Z,17.27
2024-02-08T03:42:02.816Z,17.60
2024-02-08T03:44:31.798Z,18.15
2024-02-08T03:47:09.008Z,19.10
2024-02-08T03:49:39.331Z,18.13
2024-02-08T03:52:10.032Z,18.00
2024-02-08T03:54:37.874Z,18.63
2024-02-08T03:57:07.202Z,17.27
2024-02-08T03:59:35.294Z,17.77
2024-02-08T04:02:04.457Z,17.13
2024-02-08T04:04:53.878Z,17.35
2024-02-08T04:07:35.442Z,17.13
2024-02-08T04:10:24.233Z,17.35
2024-02-08T04:13:09.483Z,17.05
2024-02-08T04:15:56.675Z,16.15
2024-02-08T04:18:43.066Z,17.70
2024-02-08T04:21:28.654Z,16.92
2024-02-08T04:27:00.321Z,15.15
2024-02-08T04:29:45.643Z,16.25
2024-02-08T04:32:30.672Z,15.88
2024-02-08T04:35:15.913Z,15.48
2024-02-08T04:38:00.800Z,15.38
2024-02-08T04:40:46.204Z,15.43
2024-02-08T04:43:30.980Z,16.08
2024-02-08T04:46:16.023Z,15.77
2024-02-08T04:49:00.977Z,15.52
2024-02-08T04:51:46.025Z,16.25
2024-02-08T04:54:12.523Z,15.88
2024-02-08T04:56:39.149Z,15.98
2024-02-08T04:59:20.715Z,15.43
2024-02-08T05:01:50.513Z,17.02
2024-02-08T05:04:19.663Z,15.38
2024-02-08T05:06:46.967Z,14.85
2024-02-08T05:09:20.352Z,14.32
2024-02-08T05:11:50.213Z,14.07
2024-02-08T05:14:20.502Z,14.52
2024-02-08T05:16:47.071Z,14.95
2024-02-08T05:19:15.672Z,14.75
2024-02-08T05:21:43.423Z,14.50
2024-02-08T05:24:14.188Z,14.75
2024-02-08T05:26:41.973Z,14.38
2024-02-08T05:29:09.563Z,14.43
2024-02-08T05:31:43.068Z,14.65
2024-02-08T05:34:17.014Z,14.45
2024-02-08T05:36:45.377Z,15.25
2024-02-08T05:39:12.665Z,13.73
2024-02-08T05:41:39.239Z,13.82
2024-02-08T05:44:08.505Z,13.13
2024-02-08T05:46:41.059Z,13.10
2024-02-08T05:49:16.164Z,12.93
2024-02-08T05:51:53.703Z,14.52
2024-02-08T05:54:32.625Z,13.32
2024-02-08T05:57:04.299Z,13.73
2024-02-08T05:59:32.888Z,13.18
2024-02-08T06:02:00.621Z,12.98
2024-02-08T06:04:35.636Z,14.57
2024-02-08T06:07:13.832Z,13.18
2024-02-08T06:09:50.296Z,13.40
2024-02-08T06:12:37.741Z,12.43
2024-02-08T06:15:16.004Z,12.38
2024-02-08T06:17:47.023Z,11.93
2024-02-08T06:20:15.927Z,12.15
2024-02-08T06:22:44.905Z,13.18
2024-02-08T06:25:29.057Z,12.98
2024-02-08T06:27:59.357Z,13.60
2024-02-08T06:30:32.029Z,13.88
2024-02-08T06:33:18.037Z,12.88
2024-02-08T06:35:46.458Z,13.25
2024-02-08T06:38:29.445Z,12.60
2024-02-08T06:40:56.407Z,12.18
2024-02-08T06:43:26.242Z,13.10
2024-02-08T06:45:54.396Z,11.88
2024-02-08T06:48:34.639Z,13.43
2024-02-08T06:51:23.628Z,12.60
2024-02-08T06:54:10.062Z,12.20
2024-02-08T06:56:58.685Z,11.52
2024-02-08T06:59:43.427Z,11.02
2024-02-08T07:02:28.861Z,12.10
2024-02-08T07:05:14.440Z,11.95
2024-02-08T07:08:00.679Z,12.38
2024-02-08T07:10:46.348Z,10.07
2024-02-08T07:13:31.554Z,11.10
2024-02-08T07:16:16.772Z,11.77
2024-02-08T07:19:06.927Z,11.07
2024-02-08T07:21:54.209Z,12.65
2024-02-08T07:24:39.224Z,10.85
2024-02-08T07:27:24.795Z,10.50
2024-02-08T07:32:54.586Z,11.23
2024-02-08T07:35:39.494Z,12.10
2024-02-08T07:38:08.874Z,11.18
2024-02-08T07:40:39.081Z,10.75
2024-02-08T07:43:14.426Z,9.90
2024-02-08T07:45:48.651Z,10.10
2024-02-08T07:48:37.115Z,10.20
2024-02-08T07:51:04.824Z,10.60
2024-02-08T07:53:47.248Z,11.60
2024-02-08T07:56:47.271Z,11.40
2024-02-08T07:59:17.311Z,12.50
2024-02-08T08:01:50.865Z,14.05
2024-02-08T08:04:40.864Z,12.98
2024-02-08T08:07:10.784Z,12.10
2024-02-08T08:09:40.387Z,12.50
2024-02-08T08:12:07.093Z,13.35
2024-02-08T08:14:40.134Z,13.10
2024-02-08T08:17:18.079Z,11.93
2024-02-08T08:19:48.136Z,12.38
2024-02-08T08:22:41.585Z,11.85
2024-02-08T08:25:13.822Z,12.68
2024-02-08T08:28:00.444Z,11.88
2024-02-08T08:33:00.553Z,11.50
2024-02-08T08:35:37.774Z,11.25
2024-02-08T08:38:21.541Z,11.82
2024-02-08T08:40:50.123Z,10.85
2024-02-08T08:43:21.685Z,11.13
2024-02-08T08:45:52.235Z,11.13
2024-02-08T08:48:23.058Z,10.40
2024-02-08T08:50:59.248Z,10.70
2024-02-08T08:53:28.673Z,9.27
2024-02-08T08:55:56.784Z,10.20
2024-02-08T08:58:28.915Z,8.85
2024-02-08T09:01:12.887Z,8.52
2024-02-08T09:03:41.025Z,9.75
2024-02-08T09:06:13.381Z,9.10
2024-02-08T09:08:44.292Z,7.93
2024-02-08T09:11:15.271Z,8.77
2024-02-08T09:16:31.326Z,8.15
2024-02-08T09:19:01.508Z,7.20
2024-02-08T09:21:36.991Z,6.75
2024-02-08T09:24:05.315Z,7.57
2024-02-08T09:26:57.829Z,7.18
2024-02-08T09:29:31.307Z,7.30
2024-02-08T09:32:16.006Z,7.30
2024-02-08T09:34:43.169Z,6.60
2024-02-08T09:37:10.376Z,6.90
2024-02-08T09:39:54.980Z,6.18
2024-02-08T09:42:29.460Z,7.20
2024-02-08T09:45:19.731Z,6.85
2024-02-08T09:47:53.957Z,5.82
2024-02-08T09:50:37.581Z,5.82
2024-02-08T09:53:17.109Z,6.28
2024-02-08T09:55:57.219Z,6.55
2024-02-08T09:58:43.243Z,6.20
2024-02-08T10:01:24.105Z,5.60
2024-02-08T10:04:07.295Z,6.15
2024-02-08T10:06:47.453Z,5.90
2024-02-08T10:09:34.057Z,6.10
2024-02-08T10:12:09.853Z,5.57
2024-02-08T10:14:45.914Z,5.07
2024-02-08T10:17:25.722Z,5.10
2024-02-08T10:20:18.919Z,5.47
2024-02-08T10:23:10.549Z,5.45
2024-02-08T10:25:56.457Z,5.78
2024-02-08T10:28:24.943Z,5.72
2024-02-08T10:31:00.661Z,5.82
2024-02-08T10:33:36.938Z,4.57
2024-02-08T10:36:22.176Z,5.63
2024-02-08T10:38:58.723Z,5.53
2024-02-08T10:41:58.679Z,5.22
2024-02-08T10:44:30.839Z,4.72
2024-02-08T10:47:07.272Z,5.10
2024-02-08T10:49:46.186Z,4.95
2024-02-08T10:52:17.245Z,5.20
2024-02-08T10:54:50.522Z,4.53
2024-02-08T10:57:35.773Z,5.00
2024-02-08T11:00:22.794Z,5.88
2024-02-08T11:03:01.310Z,4.82
2024-02-08T11:05:27.973Z,4.72
2024-02-08T11:07:55.138Z,5.35
2024-02-08T11:10:25.279Z,4.80
2024-02-08T11:12:58.102Z,5.00
2024-02-08T11:15:40.420Z,4.68
2024-02-08T11:18:26.663Z,4.55
2024-02-08T11:21:04.877Z,5.10
2024-02-08T11:23:46.989Z,4.30
2024-02-08T11:26:14.338Z,5.75
2024-02-08T11:28:49.033Z,4.65
2024-02-08T11:31:18.836Z,4.78
2024-02-08T11:33:46.322Z,4.53
2024-02-08T11:36:15.754Z,4.93
2024-02-08T11:38:48.328Z,4.63
2024-02-08T11:41:21.778Z,5.05
2024-02-08T11:44:07.216Z,4.72
2024-02-08T11:46:39.193Z,4.68
2024-02-08T11:49:16.119Z,4.57
2024-02-08T11:51:46.771Z,4.80
2024-02-08T11:54:29.999Z,5.38
2024-02-08T11:57:07.152Z,4.80
2024-02-08T11:59:37.222Z,5.43
2024-02-08T12:02:09.201Z,5.18
2024-02-08T12:04:42.882Z,6.53
2024-02-08T12:07:15.720Z,10.95
2024-02-08T12:09:42.363Z,9.75
2024-02-08T12:12:10.101Z,11.50
2024-02-08T12:14:40.475Z,11.82
2024-02-08T12:17:11.610Z,14.80
2024-02-08T12:19:39.222Z,18.98
2024-02-08T12:22:06.514Z,22.13
2024-02-08T12:24:34.512Z,24.45
2024-02-08T12:27:16.128Z,25.73
2024-02-08T12:29:47.170Z,26.58
2024-02-08T12:32:18.071Z,27.08
2024-02-08T12:34:51.717Z,25.88
2024-02-08T12:37:23.939Z,25.98
2024-02-08T12:39:51.142Z,25.60
2024-02-08T12:42:19.397Z,23.90
2024-02-08T12:44:51.072Z,24.67
2024-02-08T12:47:20.787Z,23.40
2024-02-08T12:49:48.930Z,21.98
2024-02-08T12:52:17.493Z,20.15
2024-02-08T12:54:54.309Z,20.38
2024-02-08T12:57:23.370Z,18.85
2024-02-08T13:00:02.039Z,18.95
2024-02-08T13:02:34.197Z,18.13
2024-02-08T13:05:05.468Z,17.10
2024-02-08T13:07:36.451Z,11.40
2024-02-08T13:10:15.699Z,14.85
2024-02-08T13:12:43.098Z,17.83
2024-02-08T13:15:21.876Z,18.92
2024-02-08T13:17:48.521Z,16.80
2024-02-08T13:20:17.986Z,16.65
2024-02-08T13:22:48.946Z,15.68
2024-02-08T13:25:17.606Z,16.70
2024-02-08T13:27:49.465Z,15.70
2024-02-08T13:30:16.661Z,15.20
2024-02-08T13:32:52.873Z,14.77
2024-02-08T13:35:20.829Z,15.68
2024-02-08T13:37:48.526Z,14.65
2024-02-08T13:40:16.341Z,13.40
2024-02-08T13:42:51.960Z,15.38
2024-02-08T13:45:26.393Z,14.13
2024-02-08T13:47:58.264Z,13.05
2024-02-08T13:50:30.726Z,12.35
2024-02-08T13:52:59.003Z,11.77
2024-02-08T13:55:45.253Z,13.65
2024-02-08T13:58:19.558Z,11.85
2024-02-08T14:00:46.469Z,11.50
2024-02-08T14:03:17.824Z,11.00
2024-02-08T14:05:51.822Z,12.20
2024-02-08T14:08:19.583Z,9.88
2024-02-08T14:10:46.619Z,11.23
2024-02-08T14:13:17.768Z,10.38
2024-02-08T14:15:49.699Z,9.93
2024-02-08T14:18:28.901Z,9.93
2024-02-08T14:20:59.258Z,10.50
2024-02-08T14:23:34.341Z,9.90
2024-02-08T14:26:04.930Z,11.70
2024-02-08T14:28:32.315Z,9.18
2024-02-08T14:31:01.789Z,8.80
2024-02-08T14:33:33.494Z,9.30
2024-02-08T14:36:07.349Z,8.65
2024-02-08T14:38:37.529Z,8.98
2024-02-08T14:41:33.948Z,9.63
2024-02-08T14:44:08.361Z,8.77
2024-02-08T14:46:43.341Z,8.05
2024-02-08T14:49:27.797Z,9.45
2024-02-08T14:52:16.319Z,7.30
2024-02-08T14:54:43.603Z,7.97
2024-02-08T14:57:11.911Z,8.98
2024-02-08T14:59:59.320Z,7.72
2024-02-08T15:02:30.686Z,7.13
2024-02-08T15:05:02.004Z,7.65
2024-02-08T15:07:49.422Z,7.60
2024-02-08T15:10:21.861Z,7.53
2024-02-08T15:12:58.632Z,8.00
2024-02-08T15:15:34.235Z,8.10
2024-02-08T15:20:57.531Z,7.07
2024-02-08T15:23:35.186Z,8.02
2024-02-08T15:26:13.922Z,6.93
2024-02-08T15:28:44.072Z,8.02
2024-02-08T15:31:23.086Z,7.72
2024-02-08T15:34:08.482Z,6.97
2024-02-08T15:36:49.229Z,7.65
2024-02-08T15:39:35.321Z,6.43
2024-02-08T15:42:18.630Z,6.28
2024-02-08T15:44:54.908Z,7.65
2024-02-08T15:47:22.201Z,6.32
2024-02-08T15:49:55.463Z,6.47
2024-02-08T15:52:24.252Z,6.72
2024-02-08T15:54:56.935Z,6.65
2024-02-08T15:57:30.171Z,6.10
2024-02-08T16:00:01.725Z,6.60
2024-02-08T16:02:28.774Z,6.35
2024-02-08T16:05:13.081Z,6.70
2024-02-08T16:07:43.839Z,6.05
2024-02-08T16:10:25.503Z,5.90
2024-02-08T16:13:06.570Z,5.93
2024-02-08T16:15:53.033Z,6.22
2024-02-08T16:18:26.349Z,6.53
2024-02-08T16:20:56.977Z,5.77
2024-02-08T16:23:44.878Z,6.28
2024-02-08T16:26:13.640Z,5.55
2024-02-08T16:28:51.307Z,6.25
2024-02-08T16:31:18.276Z,5.53
2024-02-08T16:33:49.561Z,5.97
2024-02-08T16:36:31.129Z,5.47
2024-02-08T16:39:09.135Z,5.68
2024-02-08T16:41:57.756Z,5.72
2024-02-08T16:44:38.819Z,5.28
2024-02-08T16:47:28.404Z,5.75
2024-02-08T16:49:56.928Z,6.10
2024-02-08T16:52:29.262Z,5.22
2024-02-08T16:55:00.223Z,5.55
2024-02-08T16:57:33.305Z,5.70
2024-02-08T17:00:20.139Z,5.80
2024-02-08T17:03:05.138Z,5.72
2024-02-08T17:05:50.589Z,5.88
2024-02-08T17:08:37.437Z,6.00
2024-02-08T17:11:16.525Z,5.05
2024-02-08T17:13:52.066Z,6.18
2024-02-08T17:16:31.795Z,5.32
2024-02-08T17:19:18.536Z,5.13
2024-02-08T17:21:51.107Z,5.43
2024-02-08T17:24:30.711Z,5.25
2024-02-08T17:27:00.945Z,5.93
2024-02-08T17:29:36.762Z,4.65
2024-02-08T17:32:08.973Z,5.00
2024-02-08T17:34:38.582Z,4.63
2024-02-08T17:37:05.462Z,4.88
2024-02-08T17:39:43.889Z,4.78
2024-02-08T17:42:13.697Z,4.82
2024-02-08T17:44:50.559Z,4.55
2024-02-08T17:47:21.574Z,4.30
2024-02-08T17:49:48.139Z,4.93
2024-02-08T17:52:15.783Z,4.20
2024-02-08T17:54:53.269Z,4.47
2024-02-08T17:57:26.163Z,4.57
2024-02-08T18:00:00.828Z,4.30
2024-02-08T18:05:02.619Z,4.07
2024-02-08T18:07:31.081Z,4.00
2024-02-08T18:10:17.880Z,4.65
2024-02-08T18:12:45.208Z,4.93
2024-02-08T18:15:22.957Z,4.25
2024-02-08T18:17:54.919Z,3.60
2024-02-08T18:20:22.650Z,5.05
2024-02-08T18:22:52.336Z,4.43
2024-02-08T18:25:31.499Z,3.85
2024-02-08T18:28:00.479Z,4.55
2024-02-08T18:30:31.154Z,4.20
2024-02-08T18:33:20.266Z,3.47
2024-02-08T18:35:48.954Z,4.05
2024-02-08T18:38:20.083Z,4.05
2024-02-08T18:40:49.203Z,4.22
2024-02-08T18:43:18.173Z,4.30
2024-02-08T18:45:50.090Z,3.42
2024-02-08T18:48:21.510Z,4.85
2024-02-08T18:50:50.282Z,3.90
2024-02-08T18:53:19.792Z,4.18
2024-02-08T18:55:47.328Z,3.85
2024-02-08T18:58:14.982Z,4.32
2024-02-08T19:00:47.654Z,3.92
2024-02-08T19:03:21.284Z,4.10
2024-02-08T19:05:49.696Z,5.13
2024-02-08T19:08:21.107Z,4.25
2024-02-08T19:10:53.005Z,4.18
2024-02-08T19:13:29.665Z,3.80
2024-02-08T19:15:58.467Z,5.53
2024-02-08T19:18:28.051Z,5.00
2024-02-08T19:20:57.161Z,5.07
2024-02-08T19:23:25.346Z,4.82
2024-02-08T19:25:58.707Z,5.25
2024-02-08T19:28:25.953Z,4.85
2024-02-08T19:30:53.399Z,4.90
2024-02-08T19:33:25.148Z,5.03
2024-02-08T19:35:55.868Z,4.05
2024-02-08T19:38:27.298Z,4.43
2024-02-08T19:40:57.289Z,4.40
2024-02-08T19:43:27.937Z,4.63
2024-02-08T19:45:55.023Z,5.18
2024-02-08T19:48:26.230Z,4.63
2024-02-08T19:50:53.983Z,4.30
2024-02-08T19:53:29.176Z,4.25
2024-02-08T19:58:24.247Z,5.20
2024-02-08T20:00:53.993Z,4.72
2024-02-08T20:03:28.047Z,4.07
2024-02-08T20:05:56.284Z,4.45
2024-02-08T20:08:24.034Z,3.85
2024-02-08T20:10:52.615Z,4.25
2024-02-08T20:13:22.872Z,4.10
2024-02-08T20:15:49.507Z,4.40
2024-02-08T20:18:19.725Z,4.93
2024-02-08T20:20:48.083Z,4.15
2024-02-08T20:23:20.128Z,3.92
2024-02-08T20:25:49.829Z,4.22
2024-02-08T20:28:17.352Z,4.38
2024-02-08T20:30:51.836Z,3.97
2024-02-08T20:33:19.863Z,3.60
2024-02-08T20:35:47.756Z,3.65
2024-02-08T20:38:19.434Z,4.05
2024-02-08T20:40:47.277Z,4.55
2024-02-08T20:43:18.860Z,4.15
2024-02-08T20:45:50.491Z,3.50
2024-02-08T20:48:21.148Z,3.75
2024-02-08T20:50:48.599Z,3.75
2024-02-08T20:53:18.703Z,4.07
2024-02-08T20:55:52.458Z,3.40
2024-02-08T20:58:20.649Z,4.25
2024-02-08T21:00:52.741Z,3.75
2024-02-08T21:03:22.159Z,3.92
2024-02-08T21:05:55.344Z,3.53
2024-02-08T21:08:24.717Z,3.42
2024-02-08T21:10:55.875Z,3.70
2024-02-08T21:13:23.134Z,4.28
2024-02-08T21:15:50.953Z,4.07
2024-02-08T21:18:21.131Z,3.47
2024-02-08T21:20:54.931Z,3.53
2024-02-08T21:23:23.108Z,3.20
2024-02-08T21:25:53.088Z,3.53
2024-02-08T21:28:19.949Z,2.92
2024-02-08T21:30:46.828Z,3.38
2024-02-08T21:33:17.020Z,3.38
2024-02-08T21:35:47.304Z,3.20
2024-02-08T21:38:14.511Z,3.17
2024-02-08T21:40:43.504Z,3.20
2024-02-08T21:43:13.593Z,2.90
2024-02-08T21:45:49.244Z,3.30
2024-02-08T21:48:16.500Z,3.00
2024-02-08T21:50:51.272Z,3.05
2024-02-08T21:53:18.402Z,4.25
2024-02-08T21:55:45.279Z,3.10
2024-02-08T21:58:12.702Z,3.45
2024-02-08T22:00:40.893Z,3.25
2024-02-08T22:03:08.242Z,3.10
2024-02-08T22:05:36.715Z,3.28
2024-02-08T22:08:04.715Z,3.53
2024-02-08T22:10:31.434Z,3.53
2024-02-08T22:12:57.956Z,2.72
2024-02-08T22:15:24.410Z,3.25
2024-02-08T22:17:53.455Z,3.05
2024-02-08T22:20:22.807Z,3.30
2024-02-08T22:22:52.239Z,3.00
2024-02-08T22:25:19.417Z,3.28
2024-02-08T22:27:46.053Z,3.22
2024-02-08T22:30:13.232Z,2.95
2024-02-08T22:32:44.986Z,2.67
2024-02-08T22:35:12.277Z,3.22
2024-02-08T22:37:39.891Z,3.38
2024-02-08T22:40:08.850Z,3.15
2024-02-08T22:42:39.164Z,3.22
2024-02-08T22:45:10.368Z,3.67
2024-02-08T22:47:41.387Z,2.70
2024-02-08T22:50:14.377Z,2.92
2024-02-08T22:52:45.873Z,2.95
2024-02-08T22:55:17.838Z,2.53
2024-02-08T22:57:49.100Z,2.95
2024-02-08T23:00:23.941Z,2.83
2024-02-08T23:02:51.488Z,3.00
2024-02-08T23:05:22.661Z,2.90
2024-02-08T23:07:49.245Z,3.13
2024-02-08T23:10:19.291Z,2.55
2024-02-08T23:12:48.942Z,2.58
2024-02-08T23:15:20.861Z,3.20
2024-02-08T23:17:55.715Z,2.92
2024-02-08T23:20:23.016Z,3.75
2024-02-08T23:22:50.580Z,2.40
2024-02-08T23:25:22.342Z,2.80
2024-02-08T23:27:49.026Z,2.70
2024-02-08T23:30:16.243Z,3.05
2024-02-08T23:32:44.273Z,2.17
2024-02-08T23:35:13.515Z,2.90
2024-02-08T23:37:41.754Z,3.20
2024-02-08T23:40:15.687Z,2.63
2024-02-08T23:42:43.222Z,2.67
2024-02-08T23:45:13.519Z,2.60
2024-02-08T23:47:40.849Z,2.28
2024-02-08T23:50:10.456Z,2.50
2024-02-08T23:52:38.407Z,2.45
2024-02-08T23:55:07.071Z,2.55
2024-02-08T23:57:37.614Z,2.25
